createdAt,value
2019-03-21T00:01:41.269Z,11.00
2019-03-21T00:04:13.935Z,9.00
2019-03-21T00:06:44.638Z,8.00
2019-03-21T00:09:17.136Z,8.25
2019-03-21T00:12:09.181Z,7.50
2019-03-21T00:14:48.681Z,4.50
2019-03-21T00:17:37.244Z,5.00
2019-03-21T00:20:16.073Z,9.00
2019-03-21T00:22:46.575Z,12.00
2019-03-21T00:25:19.524Z,9.25
2019-03-21T00:27:50.030Z,9.50
2019-03-21T00:30:22.877Z,12.25
2019-03-21T00:32:53.250Z,11.00
2019-03-21T00:35:23.436Z,11.00
2019-03-21T00:37:53.864Z,15.25
2019-03-21T00:40:32.741Z,9.50
2019-03-21T00:43:05.133Z,8.00
2019-03-21T00:45:35.214Z,7.25
2019-03-21T00:48:06.595Z,14.50
2019-03-21T00:50:36.874Z,9.25
2019-03-21T00:53:06.861Z,11.50
2019-03-21T00:55:42.484Z,9.25
2019-03-21T00:58:12.673Z,9.00
2019-03-21T01:00:49.108Z,8.50
2019-03-21T01:03:19.657Z,6.00
2019-03-21T01:05:50.160Z,9.50
2019-03-21T01:08:20.335Z,9.50
2019-03-21T01:10:51.234Z,2.50
2019-03-21T01:13:21.541Z,9.00
2019-03-21T01:15:51.896Z,6.75
2019-03-21T01:18:22.500Z,6.75
2019-03-21T01:20:52.724Z,9.25
2019-03-21T01:23:23.474Z,6.25
2019-03-21T01:26:02.874Z,11.00
2019-03-21T01:28:33.263Z,4.00
2019-03-21T01:31:03.470Z,8.00
2019-03-21T01:33:33.766Z,6.25
2019-03-21T01:36:04.806Z,10.50
2019-03-21T01:38:34.955Z,8.00
2019-03-21T01:41:08.609Z,7.50
2019-03-21T01:43:38.717Z,12.25
2019-03-21T01:46:12.246Z,8.75
2019-03-21T01:48:43.097Z,6.50
2019-03-21T01:51:13.513Z,6.00
2019-03-21T01:53:44.648Z,6.25
2019-03-21T01:56:14.819Z,6.25
2019-03-21T01:58:44.878Z,12.00
2019-03-21T02:01:15.654Z,10.00
2019-03-21T02:03:45.757Z,8.75
2019-03-21T02:06:16.002Z,10.50
2019-03-21T02:08:46.193Z,8.00
2019-03-21T02:11:16.429Z,10.50
2019-03-21T02:13:47.274Z,10.00
2019-03-21T02:16:17.515Z,11.50
2019-03-21T02:18:47.567Z,10.50
2019-03-21T02:21:18.320Z,11.00
2019-03-21T02:23:48.846Z,9.25
2019-03-21T02:26:19.012Z,6.50
2019-03-21T02:28:49.526Z,9.25
2019-03-21T02:31:20.140Z,9.25
2019-03-21T02:33:50.398Z,13.00
2019-03-21T02:36:20.872Z,8.50
2019-03-21T02:38:51.122Z,8.75
2019-03-21T02:41:21.258Z,11.00
2019-03-21T02:43:51.574Z,10.50
2019-03-21T02:46:22.482Z,15.25
2019-03-21T02:48:53.070Z,12.00
2019-03-21T02:51:23.368Z,9.50
2019-03-21T02:53:53.891Z,10.75
2019-03-21T02:56:26.012Z,11.50
2019-03-21T02:58:56.637Z,13.50
2019-03-21T03:01:26.484Z,9.50
2019-03-21T03:03:56.576Z,16.50
2019-03-21T03:06:26.738Z,10.25
2019-03-21T03:08:57.051Z,6.75
2019-03-21T03:11:26.976Z,10.00
2019-03-21T03:13:57.207Z,11.50
2019-03-21T03:16:28.026Z,7.50
2019-03-21T03:18:58.263Z,9.50
2019-03-21T03:21:28.558Z,3.00
2019-03-21T03:23:59.144Z,17.00
2019-03-21T03:26:30.133Z,9.00
2019-03-21T03:29:00.689Z,12.75
2019-03-21T03:31:30.834Z,16.00
2019-03-21T03:34:00.819Z,11.50
2019-03-21T03:36:32.652Z,9.50
2019-03-21T03:39:03.058Z,16.00
2019-03-21T03:41:33.318Z,12.50
2019-03-21T03:44:03.631Z,8.00
2019-03-21T03:46:33.652Z,13.50
2019-03-21T03:49:03.973Z,13.75
2019-03-21T03:51:34.823Z,11.00
2019-03-21T03:54:05.646Z,9.00
2019-03-21T03:56:36.506Z,13.50
2019-03-21T03:59:08.966Z,6.25
2019-03-21T04:01:39.195Z,10.00
2019-03-21T04:04:09.303Z,10.75
2019-03-21T04:06:39.543Z,6.50
2019-03-21T04:09:10.535Z,6.25
2019-03-21T04:11:40.599Z,12.00
2019-03-21T04:14:10.978Z,12.00
2019-03-21T04:16:41.874Z,9.00
2019-03-21T04:19:12.017Z,15.00
2019-03-21T04:21:42.513Z,9.00
2019-03-21T04:24:12.605Z,9.00
2019-03-21T04:26:42.837Z,17.75
2019-03-21T04:29:13.267Z,12.25
2019-03-21T04:31:43.673Z,11.25
2019-03-21T04:34:14.060Z,15.00
2019-03-21T04:36:44.814Z,15.75
2019-03-21T04:39:15.313Z,9.75
2019-03-21T04:41:46.143Z,14.00
2019-03-21T04:44:16.363Z,10.50
2019-03-21T04:46:46.698Z,11.50
2019-03-21T04:49:17.986Z,12.00
2019-03-21T04:51:48.147Z,10.00
2019-03-21T04:54:18.310Z,12.25
2019-03-21T04:56:48.431Z,12.75
2019-03-21T04:59:18.816Z,16.75
2019-03-21T05:01:49.432Z,8.00
2019-03-21T05:04:20.145Z,12.00
2019-03-21T05:06:50.660Z,12.00
2019-03-21T05:09:20.940Z,8.75
2019-03-21T05:11:51.743Z,4.50
2019-03-21T05:14:22.377Z,15.75
2019-03-21T05:16:52.478Z,12.75
2019-03-21T05:19:22.731Z,9.50
2019-03-21T05:21:52.814Z,14.25
2019-03-21T05:24:23.017Z,13.50
2019-03-21T05:26:53.395Z,15.25
2019-03-21T05:29:23.571Z,20.25
2019-03-21T05:31:53.976Z,12.75
2019-03-21T05:34:24.662Z,15.25
2019-03-21T05:36:54.983Z,10.50
2019-03-21T05:39:25.957Z,12.75
2019-03-21T05:41:56.408Z,15.50
2019-03-21T05:44:34.492Z,20.50
2019-03-21T05:47:05.252Z,13.00
2019-03-21T05:49:35.374Z,12.25
2019-03-21T05:52:05.704Z,15.25
2019-03-21T05:54:36.112Z,17.00
2019-03-21T05:57:06.494Z,8.00
2019-03-21T05:59:36.916Z,9.00
2019-03-21T06:02:07.418Z,9.75
2019-03-21T06:04:38.072Z,10.50
2019-03-21T06:07:16.681Z,8.50
2019-03-21T06:09:46.594Z,7.75
2019-03-21T06:12:16.730Z,9.50
2019-03-21T06:14:49.582Z,10.00
2019-03-21T06:17:19.630Z,8.00
2019-03-21T06:20:04.236Z,7.00
2019-03-21T06:22:46.022Z,10.50
2019-03-21T06:25:30.805Z,3.00
2019-03-21T06:28:00.761Z,6.00
2019-03-21T06:30:31.153Z,5.00
2019-03-21T06:33:01.914Z,5.00
2019-03-21T06:35:32.734Z,4.50
2019-03-21T06:38:02.987Z,3.25
2019-03-21T06:40:33.212Z,6.50
2019-03-21T06:43:03.697Z,7.00
2019-03-21T06:45:33.930Z,7.00
2019-03-21T06:48:04.062Z,4.25
2019-03-21T06:50:34.361Z,7.50
2019-03-21T06:53:04.698Z,3.00
2019-03-21T06:55:35.333Z,5.25
2019-03-21T06:58:05.962Z,7.00
2019-03-21T07:00:36.708Z,3.50
2019-03-21T07:03:07.038Z,9.25
2019-03-21T07:05:37.958Z,4.00
2019-03-21T07:08:08.397Z,4.00
2019-03-21T07:10:38.639Z,4.00
2019-03-21T07:13:08.722Z,3.00
2019-03-21T07:15:38.942Z,3.25
2019-03-21T07:18:09.307Z,6.00
2019-03-21T07:20:39.414Z,4.00
2019-03-21T07:23:09.806Z,9.00
2019-03-21T07:25:40.524Z,5.75
2019-03-21T07:28:11.410Z,5.00
2019-03-21T07:30:41.818Z,10.50
2019-03-21T07:33:12.150Z,3.00
2019-03-21T07:35:43.946Z,9.25
2019-03-21T07:38:14.035Z,3.75
2019-03-21T07:40:44.966Z,3.75
2019-03-21T07:43:15.478Z,6.25
2019-03-21T07:45:45.622Z,3.50
2019-03-21T07:48:15.958Z,3.75
2019-03-21T07:50:46.244Z,4.50
2019-03-21T07:53:16.266Z,3.00
2019-03-21T07:55:46.616Z,3.00
2019-03-21T07:58:16.705Z,2.00
2019-03-21T08:00:47.354Z,5.00
2019-03-21T08:03:17.478Z,4.00
2019-03-21T08:05:48.302Z,5.50
2019-03-21T08:08:19.534Z,1.00
2019-03-21T08:10:50.086Z,3.75
2019-03-21T08:13:20.810Z,3.00
2019-03-21T08:15:51.425Z,5.00
2019-03-21T08:18:21.590Z,6.25
2019-03-21T08:20:57.243Z,3.00
2019-03-21T08:23:23.954Z,4.50
2019-03-21T08:25:54.202Z,4.00
2019-03-21T08:28:24.483Z,6.00
2019-03-21T08:31:00.261Z,5.00
2019-03-21T08:33:30.434Z,5.75
2019-03-21T08:36:01.217Z,4.00
2019-03-21T08:38:31.638Z,4.50
2019-03-21T08:41:02.041Z,7.50
2019-03-21T08:43:32.759Z,6.00
2019-03-21T08:46:03.017Z,5.50
2019-03-21T08:48:33.231Z,6.25
2019-03-21T08:51:08.184Z,7.00
2019-03-21T08:53:36.043Z,7.00
2019-03-21T08:56:06.249Z,7.00
2019-03-21T08:58:36.598Z,11.75
2019-03-21T09:01:07.117Z,9.50
2019-03-21T09:03:37.241Z,5.50
2019-03-21T09:06:07.447Z,6.50
2019-03-21T09:08:38.004Z,6.25
2019-03-21T09:11:08.318Z,5.00
2019-03-21T09:13:38.413Z,13.50
2019-03-21T09:16:10.895Z,5.00
2019-03-21T09:18:41.370Z,6.75
2019-03-21T09:21:19.590Z,4.50
2019-03-21T09:23:43.770Z,7.00
2019-03-21T09:26:13.841Z,6.00
2019-03-21T09:28:44.650Z,9.00
2019-03-21T09:31:14.899Z,8.00
2019-03-21T09:33:45.124Z,7.00
2019-03-21T09:36:15.326Z,3.50
2019-03-21T09:38:45.579Z,5.00
2019-03-21T09:41:16.099Z,3.50
2019-03-21T09:43:46.321Z,5.00
2019-03-21T09:46:17.171Z,7.50
2019-03-21T09:48:47.762Z,6.00
2019-03-21T09:51:17.880Z,5.00
2019-03-21T09:53:48.145Z,13.00
2019-03-21T09:56:18.325Z,9.00
2019-03-21T09:58:48.674Z,4.00
2019-03-21T10:01:18.781Z,8.75
2019-03-21T10:03:48.994Z,8.50
2019-03-21T10:06:19.311Z,10.00
2019-03-21T10:08:49.882Z,11.50
2019-03-21T10:11:20.287Z,16.00
2019-03-21T10:13:50.485Z,7.50
2019-03-21T10:16:20.733Z,10.00
2019-03-21T10:18:51.058Z,6.00
2019-03-21T10:21:21.497Z,9.00
2019-03-21T10:23:51.717Z,8.50
2019-03-21T10:26:21.930Z,9.00
2019-03-21T10:28:52.156Z,7.75
2019-03-21T10:31:22.770Z,8.00
2019-03-21T10:33:52.910Z,1.00
2019-03-21T10:36:23.725Z,7.00
2019-03-21T10:38:53.954Z,6.75
2019-03-21T10:41:24.187Z,11.00
2019-03-21T10:43:58.391Z,4.25
2019-03-21T10:46:28.999Z,4.00
2019-03-21T10:48:59.253Z,12.00
2019-03-21T10:51:29.391Z,6.00
2019-03-21T10:53:59.567Z,9.75
2019-03-21T10:56:29.812Z,5.50
2019-03-21T10:59:00.355Z,9.00
2019-03-21T11:01:30.721Z,4.50
2019-03-21T11:04:01.169Z,13.50
2019-03-21T11:06:32.091Z,9.50
2019-03-21T11:09:02.267Z,11.00
2019-03-21T11:11:32.759Z,8.75
2019-03-21T11:14:03.510Z,9.75
2019-03-21T11:16:33.833Z,9.50
2019-03-21T11:19:04.406Z,10.75
2019-03-21T11:21:34.494Z,9.50
2019-03-21T11:24:04.810Z,4.50
2019-03-21T11:26:35.317Z,10.00
2019-03-21T11:29:06.066Z,6.25
2019-03-21T11:31:36.265Z,17.50
2019-03-21T11:34:06.898Z,8.00
2019-03-21T11:36:38.628Z,4.00
2019-03-21T11:39:09.386Z,7.25
2019-03-21T11:41:39.733Z,8.00
2019-03-21T11:44:09.965Z,4.50
2019-03-21T11:46:40.408Z,3.00
2019-03-21T11:49:10.919Z,3.75
2019-03-21T11:51:41.292Z,6.00
2019-03-21T11:54:11.367Z,8.75
2019-03-21T11:56:42.179Z,6.25
2019-03-21T11:59:12.438Z,3.25
2019-03-21T12:01:43.646Z,9.00
2019-03-21T12:04:13.893Z,11.25
2019-03-21T12:06:43.862Z,9.25
2019-03-21T12:09:13.876Z,14.25
2019-03-21T12:11:44.723Z,6.00
2019-03-21T12:14:14.999Z,12.00
2019-03-21T12:16:45.057Z,13.75
2019-03-21T12:19:15.383Z,13.50
2019-03-21T12:21:45.991Z,18.75
2019-03-21T12:24:16.283Z,9.50
2019-03-21T12:26:46.250Z,14.00
2019-03-21T12:29:17.622Z,10.00
2019-03-21T12:31:47.679Z,18.25
2019-03-21T12:34:17.838Z,15.25
2019-03-21T12:36:48.163Z,18.00
2019-03-21T12:39:19.028Z,12.75
2019-03-21T12:41:49.219Z,10.00
2019-03-21T12:44:19.595Z,14.00
2019-03-21T12:46:49.719Z,12.00
2019-03-21T12:49:20.213Z,9.25
2019-03-21T12:51:50.437Z,14.50
2019-03-21T12:54:20.516Z,24.25
2019-03-21T12:56:52.949Z,15.50
2019-03-21T12:59:22.681Z,9.50
2019-03-21T13:01:52.826Z,18.25
2019-03-21T13:04:22.958Z,19.75
2019-03-21T13:06:53.426Z,2.00
2019-03-21T13:09:24.698Z,21.25
2019-03-21T13:11:54.847Z,17.50
2019-03-21T13:14:25.626Z,9.25
2019-03-21T13:16:56.125Z,13.25
2019-03-21T13:19:26.204Z,12.50
2019-03-21T13:21:56.492Z,10.00
2019-03-21T13:24:27.110Z,16.00
2019-03-21T13:26:57.083Z,17.75
2019-03-21T13:29:27.024Z,17.25
2019-03-21T13:31:57.619Z,25.00
2019-03-21T13:34:27.900Z,11.50
2019-03-21T13:36:58.103Z,19.50
2019-03-21T13:39:29.510Z,16.25
2019-03-21T13:41:59.762Z,19.25
2019-03-21T13:44:29.996Z,15.00
2019-03-21T13:47:00.913Z,10.25
2019-03-21T13:49:31.097Z,14.75
2019-03-21T13:52:04.690Z,20.50
2019-03-21T13:54:33.990Z,9.25
2019-03-21T13:57:04.242Z,15.25
2019-03-21T13:59:34.415Z,17.25
2019-03-21T14:02:04.487Z,13.75
2019-03-21T14:04:34.443Z,9.50
2019-03-21T14:07:04.443Z,11.00
2019-03-21T14:09:37.481Z,17.50
2019-03-21T14:12:07.554Z,15.75
2019-03-21T14:14:38.376Z,18.50
2019-03-21T14:17:08.698Z,21.50
2019-03-21T14:19:38.969Z,11.50
2019-03-21T14:22:09.161Z,20.25
2019-03-21T14:24:39.280Z,18.75
2019-03-21T14:27:09.586Z,16.00
2019-03-21T14:29:40.042Z,24.50
2019-03-21T14:32:10.553Z,14.75
2019-03-21T14:34:40.480Z,19.00
2019-03-21T14:37:10.400Z,24.75
2019-03-21T14:39:40.543Z,26.75
2019-03-21T14:42:10.631Z,17.25
2019-03-21T14:44:41.205Z,18.75
2019-03-21T14:47:11.586Z,18.50
2019-03-21T14:49:42.738Z,18.25
2019-03-21T14:52:12.592Z,20.50
2019-03-21T14:54:43.563Z,17.75
2019-03-21T14:57:13.701Z,15.50
2019-03-21T14:59:44.798Z,12.50
2019-03-21T15:02:15.055Z,16.00
2019-03-21T15:04:45.824Z,12.00
2019-03-21T15:07:18.580Z,19.25
2019-03-21T15:09:48.167Z,15.50
2019-03-21T15:12:18.494Z,11.00
2019-03-21T15:14:48.628Z,15.75
2019-03-21T15:17:18.833Z,18.00
2019-03-21T15:19:48.872Z,14.50
2019-03-21T15:22:19.010Z,18.50
2019-03-21T15:24:49.006Z,13.25
2019-03-21T15:27:19.225Z,22.25
2019-03-21T15:29:49.393Z,22.25
2019-03-21T15:32:19.959Z,17.00
2019-03-21T15:34:50.100Z,17.00
2019-03-21T15:37:20.425Z,19.25
2019-03-21T15:39:50.829Z,12.75
2019-03-21T15:42:21.069Z,13.50
2019-03-21T15:44:51.738Z,18.75
2019-03-21T15:47:21.918Z,29.00
2019-03-21T15:49:52.432Z,17.75
2019-03-21T15:52:22.666Z,25.50
2019-03-21T15:54:52.791Z,21.75
2019-03-21T15:57:24.298Z,17.50
2019-03-21T15:59:55.390Z,20.00
2019-03-21T16:02:25.600Z,19.50
2019-03-21T16:04:55.676Z,9.75
2019-03-21T16:07:26.955Z,18.50
2019-03-21T16:09:57.294Z,16.00
2019-03-21T16:12:27.651Z,14.75
2019-03-21T16:14:57.652Z,20.25
2019-03-21T16:17:28.168Z,17.25
2019-03-21T16:19:58.393Z,13.25
2019-03-21T16:22:28.624Z,18.00
2019-03-21T16:24:58.920Z,18.25
2019-03-21T16:27:29.043Z,18.75
2019-03-21T16:29:59.292Z,16.75
2019-03-21T16:32:29.543Z,16.50
2019-03-21T16:34:59.719Z,13.75
2019-03-21T16:37:29.941Z,18.25
2019-03-21T16:40:00.151Z,14.75
2019-03-21T16:42:31.287Z,22.50
2019-03-21T16:45:01.621Z,16.00
2019-03-21T16:47:32.055Z,22.50
2019-03-21T16:50:02.282Z,27.50
2019-03-21T16:52:32.498Z,19.50
2019-03-21T16:55:02.815Z,16.50
2019-03-21T16:57:33.028Z,20.50
2019-03-21T17:00:05.482Z,16.75
2019-03-21T17:02:35.929Z,27.75
2019-03-21T17:05:07.455Z,17.25
2019-03-21T17:07:37.891Z,22.25
2019-03-21T17:10:10.325Z,17.00
2019-03-21T17:12:41.301Z,14.00
2019-03-21T17:15:12.670Z,21.00
2019-03-21T17:17:42.744Z,13.50
2019-03-21T17:20:13.243Z,17.25
2019-03-21T17:22:44.060Z,13.50
2019-03-21T17:25:14.299Z,18.50
2019-03-21T17:27:44.902Z,23.75
2019-03-21T17:30:16.790Z,17.75
2019-03-21T17:32:46.802Z,15.50
2019-03-21T17:35:17.207Z,20.00
2019-03-21T17:37:47.355Z,18.00
2019-03-21T17:40:17.552Z,18.50
2019-03-21T17:42:48.283Z,24.25
2019-03-21T17:45:19.230Z,16.75
2019-03-21T17:47:49.665Z,27.50
2019-03-21T17:50:19.973Z,20.75
2019-03-21T17:52:50.668Z,9.00
2019-03-21T17:55:20.642Z,21.00
2019-03-21T17:57:50.877Z,18.50
2019-03-21T18:00:37.467Z,15.75
2019-03-21T18:03:07.879Z,17.00
2019-03-21T18:05:38.091Z,12.00
2019-03-21T18:08:09.046Z,23.75
2019-03-21T18:10:39.160Z,19.50
2019-03-21T18:13:09.616Z,7.25
2019-03-21T18:15:40.124Z,15.75
2019-03-21T18:18:10.239Z,19.00
2019-03-21T18:20:40.371Z,18.75
2019-03-21T18:23:10.613Z,19.00
2019-03-21T18:25:40.973Z,24.00
2019-03-21T18:28:11.147Z,21.75
2019-03-21T18:30:41.644Z,23.00
2019-03-21T18:33:12.177Z,20.00
2019-03-21T18:35:43.418Z,22.25
2019-03-21T18:38:14.083Z,13.75
2019-03-21T18:40:45.969Z,16.50
2019-03-21T18:43:16.440Z,21.50
2019-03-21T18:45:46.980Z,18.75
2019-03-21T18:48:17.202Z,22.75
2019-03-21T18:50:47.431Z,29.50
2019-03-21T18:53:17.670Z,18.50
2019-03-21T18:55:47.752Z,22.50
2019-03-21T18:58:18.401Z,16.00
2019-03-21T19:00:48.534Z,17.00
2019-03-21T19:03:18.720Z,15.75
2019-03-21T19:05:49.248Z,13.50
2019-03-21T19:08:19.833Z,14.25
2019-03-21T19:10:50.005Z,20.25
2019-03-21T19:13:20.838Z,14.75
2019-03-21T19:15:51.486Z,15.00
2019-03-21T19:18:21.851Z,11.50
2019-03-21T19:20:51.833Z,18.50
2019-03-21T19:23:21.759Z,22.50
2019-03-21T19:25:51.836Z,12.75
2019-03-21T19:28:22.185Z,15.00
2019-03-21T19:30:52.812Z,18.25
2019-03-21T19:33:23.071Z,13.25
2019-03-21T19:35:53.548Z,19.50
2019-03-21T19:38:24.107Z,14.50
2019-03-21T19:40:54.305Z,13.50
2019-03-21T19:43:24.745Z,18.50
2019-03-21T19:45:55.082Z,22.00
2019-03-21T19:48:25.733Z,10.50
2019-03-21T19:50:55.706Z,14.50
2019-03-21T19:53:28.814Z,13.00
2019-03-21T19:56:07.969Z,8.00
2019-03-21T19:58:30.074Z,13.00
2019-03-21T20:01:00.288Z,11.00
2019-03-21T20:03:30.704Z,10.00
2019-03-21T20:06:00.904Z,12.50
2019-03-21T20:08:32.173Z,16.75
2019-03-21T20:11:02.349Z,9.75
2019-03-21T20:13:33.394Z,12.00
2019-03-21T20:16:04.069Z,14.00
2019-03-21T20:18:34.557Z,8.75
2019-03-21T20:21:04.977Z,10.00
2019-03-21T20:23:35.800Z,9.00
2019-03-21T20:26:06.033Z,10.00
2019-03-21T20:28:36.520Z,10.50
2019-03-21T20:31:07.216Z,9.00
2019-03-21T20:33:37.404Z,8.50
2019-03-21T20:36:07.994Z,16.00
2019-03-21T20:38:38.498Z,13.00
2019-03-21T20:41:08.645Z,17.50
2019-03-21T20:43:39.217Z,8.75
2019-03-21T20:46:09.445Z,8.50
2019-03-21T20:48:38.127Z,13.25
2019-03-21T20:51:08.861Z,12.00
2019-03-21T20:53:38.958Z,12.75
2019-03-21T20:56:10.012Z,7.25
2019-03-21T20:58:39.992Z,14.50
2019-03-21T21:01:10.631Z,10.50
2019-03-21T21:03:41.515Z,11.00
2019-03-21T21:06:11.821Z,7.00
2019-03-21T21:08:42.275Z,12.25
2019-03-21T21:11:13.189Z,10.00
2019-03-21T21:13:43.713Z,9.50
2019-03-21T21:16:13.897Z,13.25
2019-03-21T21:18:44.253Z,9.00
2019-03-21T21:21:14.151Z,10.00
2019-03-21T21:23:44.837Z,8.50
2019-03-21T21:26:15.736Z,7.00
2019-03-21T21:28:46.288Z,10.50
2019-03-21T21:31:17.014Z,13.50
2019-03-21T21:33:47.100Z,17.50
2019-03-21T21:36:21.971Z,9.75
2019-03-21T21:38:49.544Z,6.00
2019-03-21T21:41:19.597Z,11.25
2019-03-21T21:43:50.142Z,16.75
2019-03-21T21:46:20.356Z,11.50
2019-03-21T21:48:50.975Z,13.50
2019-03-21T21:51:21.500Z,13.25
2019-03-21T21:53:51.806Z,11.50
2019-03-21T21:56:21.947Z,17.00
2019-03-21T21:58:52.321Z,14.00
2019-03-21T22:01:22.485Z,15.75
2019-03-21T22:04:03.873Z,15.75
2019-03-21T22:06:24.445Z,13.25
2019-03-21T22:08:54.683Z,8.25
2019-03-21T22:11:24.976Z,9.75
2019-03-21T22:13:55.339Z,13.50
2019-03-21T22:16:25.805Z,12.50
2019-03-21T22:18:55.798Z,10.00
2019-03-21T22:21:25.914Z,20.00
2019-03-21T22:23:56.284Z,12.50
2019-03-21T22:26:29.841Z,16.25
2019-03-21T22:28:59.185Z,10.50
2019-03-21T22:31:29.676Z,14.00
2019-03-21T22:33:59.970Z,10.00
2019-03-21T22:36:30.012Z,17.00
2019-03-21T22:39:00.444Z,8.00
2019-03-21T22:41:30.589Z,10.00
2019-03-21T22:44:00.925Z,12.25
2019-03-21T22:46:31.056Z,8.50
2019-03-21T22:49:01.366Z,12.25
2019-03-21T22:51:31.568Z,4.00
2019-03-21T22:54:01.832Z,7.00
2019-03-21T22:56:40.704Z,3.75
2019-03-21T22:59:03.979Z,4.50
2019-03-21T23:01:34.341Z,3.25
2019-03-21T23:04:04.625Z,4.00
2019-03-21T23:06:34.775Z,6.75
2019-03-21T23:09:07.531Z,13.00
2019-03-21T23:11:37.884Z,7.25
2019-03-21T23:14:08.080Z,10.50
2019-03-21T23:16:39.540Z,9.75
2019-03-21T23:19:10.761Z,6.00
2019-03-21T23:21:41.590Z,8.00
2019-03-21T23:24:11.792Z,6.75
2019-03-21T23:26:52.498Z,6.00
2019-03-21T23:29:14.327Z,6.50
2019-03-21T23:31:45.181Z,4.75
2019-03-21T23:34:15.996Z,9.00
2019-03-21T23:36:46.832Z,8.00
2019-03-21T23:39:17.189Z,14.25
2019-03-21T23:41:47.291Z,7.50
2019-03-21T23:44:17.627Z,6.25
2019-03-21T23:46:47.734Z,4.50
2019-03-21T23:49:18.060Z,9.25
2019-03-21T23:51:48.186Z,7.75
2019-03-21T23:54:18.999Z,7.25
2019-03-21T23:56:49.325Z,10.75
2019-03-21T23:59:19.565Z,10.25
